Buraimi, Oman
Current Conditions -  °F | °C
As of 2:00 AM on Tuesday 27 Jan 2015 (Local Time) from OMAL Reporting Station
Clear Clear  
Wind Chill: 59°   Ceiling: Unl
Heat Index: 59°   Visibility: 6mi
Dew Point: 50°   Wind: 6mph
Humidity: 72%   Direction: 30°NNE
Pressure: 30.15"   Gusts: NA
Location:  24.25°N, 55.79°E
Report Text: OMAL 262200Z 03005KT CAVOK 15/10 Q1021 A3017 NOSIG
Loading
Personal Weather Stations






























Interactive Weather Map New forecast layout! Learn more

10-Day Weather Forecast

Advertisements
Track Severe Weather on mobile